Time;durP1;ratioP1;P1;durP2;ratioP2;P2;SDS_P1;SDS_P2;PMS_P1;PMS_P2;Temp;Humidity;BMP_temperature;BMP_pressure;BME280_temperature;BME280_humidity;BME280_pressure;Samples;Min_cycle;Max_cycle;Signal;HPM_P1;HPM_P2
2023/09/11 00:00:00;;;;;;;;;;;;;;;;;;7396173;19;19922;-90
2023/09/11 00:02:26;;;;;;;;;;;;;;;;;;7397148;19;19978;-89
2023/09/11 00:04:57;;;;;;;;;;;;;;;;;;7398352;19;19919;-89
2023/09/11 00:07:24;;;;;;;;;;;;;;;;;;7398712;19;19925;-89
2023/09/11 00:09:51;;;;;;;;;;;;;;;;;;7395516;19;19930;-88
2023/09/11 00:12:18;;;;;;;;;;;;;;;;;;7394107;19;19930;-90
2023/09/11 00:14:45;;;;;;;;;;;;;;;;;;7394807;19;19932;-90
2023/09/11 00:17:11;;;;;;;;;;;;;;;;;;7397051;19;19922;-89
2023/09/11 00:19:38;;;;;;;;;;;;;;;;;;7398726;19;19937;-89
2023/09/11 00:22:04;;;;;;;;;;;;;;;;;;7396821;19;19926;-89
2023/09/11 00:24:31;;;;;;;;;;;;;;;;;;7394357;19;19922;-89
2023/09/11 00:26:58;;;;;;;;;;;;;;;;;;7395732;19;19923;-89
2023/09/11 00:29:24;;;;;;;;;;;;;;;;;;7395444;19;19926;-90
2023/09/11 00:31:51;;;;;;;;;;;;;;;;;;7395875;19;19915;-90
2023/09/11 00:34:18;;;;;;;;;;;;;;;;;;7395887;19;19943;-90
2023/09/11 00:36:44;;;;;;;;;;;;;;;;;;7394967;19;20275;-90
2023/09/11 00:39:11;;;;;;;;;;;;;;;;;;7396656;19;19935;-89
2023/09/11 00:41:38;;;;;;;;;;;;;;;;;;7396027;19;20438;-90
2023/09/11 00:44:04;;;;;;;;;;;;;;;;;;7395562;19;19934;-89
2023/09/11 00:46:31;;;;;;;;;;;;;;;;;;7396530;19;19978;-89
2023/09/11 00:48:58;;;;;;;;;;;;;;;;;;7397088;19;20381;-89
2023/09/11 00:51:25;;;;;;;;;;;;;;;;;;7396851;19;19922;-90
2023/09/11 00:53:51;;;;;;;;;;;;;;;;;;7395653;19;19919;-89
2023/09/11 00:56:18;;;;;;;;;;;;;;;;;;7395389;19;19911;-90
2023/09/11 00:58:45;;;;;;;;;;;;;;;;;;7394860;19;19922;-89
2023/09/11 01:01:11;;;;;;;;;;;;;;;;;;7400741;19;19919;-91
2023/09/11 01:03:38;;;;;;;;;;;;;;;;;;7414857;19;19911;-90
2023/09/11 01:06:05;;;;;;;;;;;;;;;;;;7420164;19;19950;-89
2023/09/11 01:08:32;;;;;;;;;;;;;;;;;;7419947;19;19947;-90
2023/09/11 01:10:58;;;;;;;;;;;;;;;;;;7423059;19;19911;-90
2023/09/11 01:13:27;;;;;;;;;;;;;;;;;;7394696;19;19995;-90
2023/09/11 01:16:08;;;;;;;;;;;;;;;;;;7397233;19;19923;-89
2023/09/11 01:18:51;;;;;;;;;;;;;;;;;;7392231;19;19943;-89
2023/09/11 01:21:27;;;;;;;;;;;;;;;;;;7396029;19;19934;-89
2023/09/11 01:23:53;;;;;;;;;;;;;;;;;;7392380;19;20416;-89
2023/09/11 01:26:26;;;;;;;;;;;;;;;;;;7394063;19;19935;-89
2023/09/11 01:29:04;;;;;;;;;;;;;;;;;;7392852;19;19926;-89
2023/09/11 01:31:37;;;;;;;;;;;;;;;;;;7391322;19;20488;-89
2023/09/11 01:34:04;;;;;;;;;;;;;;;;;;7393276;19;20303;-89
2023/09/11 01:36:33;;;;;;;;;;;;;;;;;;7394628;19;19932;-89
2023/09/11 01:38:59;;;;;;;;;;;;;;;;;;7393393;19;19919;-89
2023/09/11 01:41:27;;;;;;;;;;;;;;;;;;7390933;19;19947;-89
2023/09/11 01:43:57;;;;;;;;;;;;;;;;;;7392852;19;19934;-89
2023/09/11 01:46:24;;;;;;;;;;;;;;;;;;7391795;19;20319;-89
2023/09/11 01:48:51;;;;;;;;;;;;;;;;;;7392474;19;19922;-90
2023/09/11 01:51:24;;;;;;;;;;;;;;;;;;7392459;19;19923;-89
2023/09/11 01:53:50;;;;;;;;;;;;;;;;;;7392341;19;19922;-89
2023/09/11 01:56:17;;;;;;;;;;;;;;;;;;7392400;19;19930;-89
2023/09/11 01:58:44;;;;;;;;;;;;;;;;;;7396125;19;19926;-91
2023/09/11 02:01:10;;;;;;;;;;;;;;;;;;7397060;19;19939;-92
2023/09/11 02:03:40;;;;;;;;;;;;;;;;;;7392764;19;19919;-92
2023/09/11 02:06:07;;;;;;;;;;;;;;;;;;7396289;19;20281;-91
2023/09/11 02:08:34;;;;;;;;;;;;;;;;;;7395342;19;19918;-91
2023/09/11 02:11:00;;;;;;;;;;;;;;;;;;7395553;19;19934;-91
2023/09/11 02:13:27;;;;;;;;;;;;;;;;;;7394511;19;19926;-91
2023/09/11 02:15:56;;;;;;;;;;;;;;;;;;7395412;19;19940;-91
2023/09/11 02:18:23;;;;;;;;;;;;;;;;;;7395970;19;20325;-91
2023/09/11 02:20:49;;;;;;;;;;;;;;;;;;7397117;19;19919;-91
2023/09/11 02:23:18;;;;;;;;;;;;;;;;;;7392924;19;19927;-91
2023/09/11 02:25:44;;;;;;;;;;;;;;;;;;7395572;19;19943;-91
2023/09/11 02:28:13;;;;;;;;;;;;;;;;;;7394723;19;19986;-91
2023/09/11 02:30:54;;;;;;;;;;;;;;;;;;7392893;19;19982;-91
2023/09/11 02:33:20;;;;;;;;;;;;;;;;;;7393187;19;19936;-91
2023/09/11 02:35:54;;;;;;;;;;;;;;;;;;7396145;19;19951;-91
2023/09/11 02:38:21;;;;;;;;;;;;;;;;;;7394386;19;19922;-91
2023/09/11 02:40:47;;;;;;;;;;;;;;;;;;7394549;19;19967;-91
2023/09/11 02:43:28;;;;;;;;;;;;;;;;;;7393889;19;20396;-91
2023/09/11 02:45:58;;;;;;;;;;;;;;;;;;7394192;19;20340;-91
2023/09/11 02:48:25;;;;;;;;;;;;;;;;;;7394432;19;19923;-91
2023/09/11 02:50:51;;;;;;;;;;;;;;;;;;7394091;19;19922;-91
2023/09/11 02:53:18;;;;;;;;;;;;;;;;;;7391866;19;19927;-91
2023/09/11 02:55:45;;;;;;;;;;;;;;;;;;7393454;19;19959;-92
2023/09/11 02:58:11;;;;;;;;;;;;;;;;;;7394025;19;19927;-91
2023/09/11 03:00:38;;;;;;;;;;;;;;;;;;7392601;19;19935;-91
2023/09/11 03:03:05;;;;;;;;;;;;;;;;;;7393471;19;19945;-91
2023/09/11 03:05:32;;;;;;;;;;;;;;;;;;7390000;19;19927;-91
2023/09/11 03:07:59;;;;;;;;;;;;;;;;;;7390759;19;19918;-91
2023/09/11 03:10:27;;;;;;;;;;;;;;;;;;7392549;19;19927;-91
2023/09/11 03:12:54;;;;;;;;;;;;;;;;;;7392806;19;19911;-91
2023/09/11 03:15:27;;;;;;;;;;;;;;;;;;7391855;19;19926;-92
2023/09/11 03:17:54;;;;;;;;;;;;;;;;;;7392742;19;19918;-91
2023/09/11 03:20:20;;;;;;;;;;;;;;;;;;7390812;19;19918;-91
2023/09/11 03:22:53;;;;;;;;;;;;;;;;;;7390306;19;20400;-91
2023/09/11 03:25:20;;;;;;;;;;;;;;;;;;7394962;19;19918;-91
2023/09/11 03:27:47;;;;;;;;;;;;;;;;;;7398962;19;19982;-91
2023/09/11 03:30:13;;;;;;;;;;;;;;;;;;7396437;19;19927;-91
2023/09/11 03:32:40;;;;;;;;;;;;;;;;;;7398440;19;20332;-91
2023/09/11 03:35:06;;;;;;;;;;;;;;;;;;7398307;19;19930;-91
2023/09/11 03:37:33;;;;;;;;;;;;;;;;;;7397638;19;19990;-91
2023/09/11 03:40:00;;;;;;;;;;;;;;;;;;7399255;19;19938;-90
2023/09/11 03:42:27;;;;;;;;;;;;;;;;;;7398347;19;19918;-91
2023/09/11 03:44:54;;;;;;;;;;;;;;;;;;7396152;19;19923;-91
2023/09/11 03:47:21;;;;;;;;;;;;;;;;;;7399307;19;19922;-91
2023/09/11 03:49:47;;;;;;;;;;;;;;;;;;7397855;19;19937;-90
2023/09/11 03:52:14;;;;;;;;;;;;;;;;;;7398377;19;20013;-91
2023/09/11 03:54:40;;;;;;;;;;;;;;;;;;7397263;19;19919;-90
2023/09/11 03:57:07;;;;;;;;;;;;;;;;;;7398561;19;20317;-91
2023/09/11 03:59:33;;;;;;;;;;;;;;;;;;7400217;19;19930;-91
2023/09/11 04:02:00;;;;;;;;;;;;;;;;;;7401487;19;19933;-91
2023/09/11 04:04:27;;;;;;;;;;;;;;;;;;7396019;19;19927;-91
2023/09/11 04:06:53;;;;;;;;;;;;;;;;;;7398754;19;19950;-91
2023/09/11 04:09:20;;;;;;;;;;;;;;;;;;7398978;19;19937;-91
2023/09/11 04:11:49;;;;;;;;;;;;;;;;;;7397096;19;20356;-91
2023/09/11 04:14:16;;;;;;;;;;;;;;;;;;7394953;19;19923;-90
2023/09/11 04:16:42;;;;;;;;;;;;;;;;;;7395378;19;19946;-91
2023/09/11 04:19:09;;;;;;;;;;;;;;;;;;7396996;19;20384;-90
2023/09/11 04:21:35;;;;;;;;;;;;;;;;;;7397925;19;19933;-91
2023/09/11 04:24:02;;;;;;;;;;;;;;;;;;7395029;19;19930;-91
2023/09/11 04:26:29;;;;;;;;;;;;;;;;;;7397224;19;19926;-90
2023/09/11 04:28:56;;;;;;;;;;;;;;;;;;7395263;19;19922;-91
2023/09/11 04:31:23;;;;;;;;;;;;;;;;;;7394694;19;19927;-91
2023/09/11 04:33:56;;;;;;;;;;;;;;;;;;7396819;19;19921;-90
2023/09/11 04:36:23;;;;;;;;;;;;;;;;;;7392869;19;19940;-91
2023/09/11 04:38:49;;;;;;;;;;;;;;;;;;7396124;19;19927;-91
2023/09/11 04:41:16;;;;;;;;;;;;;;;;;;7395295;19;19984;-90
2023/09/11 04:43:43;;;;;;;;;;;;;;;;;;7395036;19;19982;-91
2023/09/11 04:46:09;;;;;;;;;;;;;;;;;;7397450;19;19989;-91
2023/09/11 04:48:36;;;;;;;1.67;1.58;;;;;;;;;;7393997;19;20675;-91
2023/09/11 04:51:03;;;;;;;5.57;1.48;;;;;;;;;;7395379;19;20157;-91
2023/09/11 04:53:30;;;;;;;0.40;0.40;;;;;;;;;;7392403;19;20626;-91
2023/09/11 04:55:56;;;;;;;0.47;0.47;;;;;;;;;;7396249;19;20157;-90
2023/09/11 04:58:25;;;;;;;1.25;1.15;;;;;;;;;;7395443;19;20811;-91
2023/09/11 05:00:52;;;;;;;0.85;0.85;;;;;;;;;;7394390;19;20137;-91
2023/09/11 05:03:19;;;;;;;2.67;1.63;;;;;;;;;;7394426;19;20721;-91
2023/09/11 05:05:51;;;;;;;0.40;0.40;;;;;;;;;;7392739;19;20140;-91
2023/09/11 05:08:18;;;;;;;0.60;0.60;;;;;;;;;;7395664;19;20617;-91
2023/09/11 05:10:45;;;;;;;0.70;0.70;;;;;;;;;;7395515;19;20154;-91
2023/09/11 05:13:11;;;;;;;0.63;0.63;;;;;;;;;;7395598;19;20145;-91
2023/09/11 05:15:38;;;;;;;2.30;1.60;;;;;;;;;;7396599;19;20159;-91
2023/09/11 05:18:05;;;;;;;1.13;1.05;;;;;;;;;;7398218;19;20220;-91
2023/09/11 05:20:32;;;;;;;0.60;0.60;;;;;;;;;;7397017;19;20204;-90
2023/09/11 05:22:59;;;;;;;1.27;1.17;;;;;;;;;;7396525;19;20149;-90
2023/09/11 05:25:25;;;;;;;0.40;0.40;;;;;;;;;;7396299;19;20137;-91
2023/09/11 05:27:52;;;;;;;1.02;1.02;;;;;;;;;;7394388;19;20133;-91
2023/09/11 05:30:19;;;;;;;0.73;0.73;;;;;;;;;;7403311;19;20137;-91
2023/09/11 05:32:51;;;;;;;1.23;1.23;;;;;;;;;;7397679;19;20145;-91
2023/09/11 05:35:20;;;;;;;0.47;0.47;;;;;;;;;;7396964;19;20136;-91
2023/09/11 05:37:51;;;;;;;0.88;0.88;;;;;;;;;;7399403;19;20129;-90
2023/09/11 05:40:18;;;;;;;0.93;0.93;;;;;;;;;;7396857;19;20153;-90
2023/09/11 05:42:45;;;;;;;1.00;1.00;;;;;;;;;;7397408;19;20212;-91
2023/09/11 05:45:11;;;;;;;2.03;1.27;;;;;;;;;;7396708;19;20215;-90
2023/09/11 05:47:39;;;;;;;0.43;0.43;;;;;;;;;;7394301;19;20208;-90
2023/09/11 05:50:07;;;;;;;0.93;0.93;;;;;;;;;;7397776;19;20140;-92
2023/09/11 05:52:34;;;;;;;0.80;0.80;;;;;;;;;;7396453;19;20212;-91
2023/09/11 05:55:01;;;;;;;1.40;1.30;;;;;;;;;;7396460;19;20597;-91
2023/09/11 05:57:28;;;;;;;0.57;0.57;;;;;;;;;;7397469;19;20145;-91
2023/09/11 05:59:54;;;;;;;0.43;0.43;;;;;;;;;;7396986;19;20133;-91
2023/09/11 06:02:21;;;;;;;0.52;0.52;;;;;;;;;;7396017;19;20157;-91
2023/09/11 06:04:48;;;;;;;1.73;1.63;;;;;;;;;;7395314;19;20217;-91
2023/09/11 06:07:16;;;;;;;1.08;0.98;;;;;;;;;;7395867;19;20148;-91
2023/09/11 06:09:43;;;;;;;1.55;1.45;;;;;;;;;;7392778;19;20136;-91
2023/09/11 06:12:10;;;;;;;0.85;0.85;;;;;;;;;;7393466;19;20216;-90
2023/09/11 06:14:37;;;;;;;0.65;0.65;;;;;;;;;;7390406;19;20149;-91
2023/09/11 06:17:05;;;;;;;2.40;1.27;;;;;;;;;;7389492;19;20136;-91
2023/09/11 06:19:32;;;;;;;0.60;0.60;;;;;;;;;;7391983;19;20142;-91
2023/09/11 06:21:59;;;;;;;1.02;1.00;;;;;;;;;;7395597;19;20133;-90
2023/09/11 06:24:25;;;;;;;1.20;1.15;;;;;;;;;;7392761;19;20149;-91
2023/09/11 06:27:05;;;;;;;1.33;1.23;;;;;;;;;;7392828;19;20480;-90
2023/09/11 06:29:32;;;;;;;0.65;0.65;;;;;;;;;;7393467;19;20165;-91
2023/09/11 06:31:59;;;;;;;1.08;1.08;;;;;;;;;;7393749;19;20129;-91
2023/09/11 06:34:27;;;;;;;1.00;1.00;;;;;;;;;;7393174;19;20212;-91
2023/09/11 06:36:54;;;;;;;4.00;1.02;;;;;;;;;;7393043;19;20826;-92
2023/09/11 06:39:21;;;;;;;1.00;1.00;;;;;;;;;;7393973;19;20133;-91
2023/09/11 06:41:48;;;;;;;1.05;1.02;;;;;;;;;;7391472;19;20137;-91
2023/09/11 06:44:15;;;;;;;0.73;0.73;;;;;;;;;;7391638;19;20189;-91
2023/09/11 06:46:41;;;;;;;0.63;0.63;;;;;;;;;;7388966;19;20616;-91
2023/09/11 06:49:08;;;;;;;1.02;1.02;;;;;;;;;;7393077;19;20121;-91
2023/09/11 06:51:35;;;;;;;1.33;1.23;;;;;;;;;;7395392;19;20135;-91
2023/09/11 06:54:03;;;;;;;0.75;0.75;;;;;;;;;;7391114;19;20165;-91
2023/09/11 06:56:31;;;;;;;1.13;1.13;;;;;;;;;;7392452;19;20179;-91
2023/09/11 06:58:57;;;;;;;1.65;1.55;;;;;;;;;;7392175;19;20165;-90
2023/09/11 07:01:24;;;;;;;0.80;0.80;;;;;;;;;;7397586;19;20216;-90
2023/09/11 07:04:14;;;;;;;0.82;0.82;;;;;;;;;;7394944;19;20164;-91
2023/09/11 07:06:56;;;;;;;1.27;1.27;;;;;;;;;;7394744;19;20200;-90
2023/09/11 07:10:41;;;;;;;;;;;;;;;;;;;;;
2023/09/11 07:13:26;;;;;;;0.45;0.45;;;;;;;;;;7400118;19;20168;-89
2023/09/11 07:16:00;;;;;;;0.80;0.80;;;;;;;;;;7424206;19;20172;-88
2023/09/11 07:18:34;;;;;;;1.02;1.02;;;;;;;;;;7426975;19;20156;-88
2023/09/11 07:24:41;;;;;;;0.88;0.88;;;;;;;;;;7413986;19;20516;-89
2023/09/11 07:27:08;;;;;;;1.52;1.35;;;;;;;;;;7399578;19;20145;-88
2023/09/11 07:29:35;;;;;;;1.55;1.50;;;;;;;;;;7408852;19;20169;-86
2023/09/11 07:32:02;;;;;;;0.75;0.75;;;;;;;;;;7395461;19;20136;-84
2023/09/11 07:34:29;;;;;;;1.00;1.00;;;;;;;;;;7396647;19;20168;-86
2023/09/11 07:36:55;;;;;;;2.42;1.50;;;;;;;;;;7397943;19;20125;-86
2023/09/11 07:39:33;;;;;;;1.15;1.15;;;;;;;;;;7399092;19;20133;-86
2023/09/11 07:41:59;;;;;;;1.50;1.48;;;;;;;;;;7397093;19;20617;-87
2023/09/11 07:44:27;;;;;;;1.75;1.42;;;;;;;;;;7393607;19;20160;-85
